createdAt,value
2023-09-27T00:04:54.064Z,15.74
2023-09-27T00:09:57.166Z,15.73
2023-09-27T00:15:03.070Z,15.66
2023-09-27T00:20:10.854Z,15.57
2023-09-27T00:25:15.490Z,15.53
2023-09-27T00:30:18.479Z,15.54
2023-09-27T00:35:23.775Z,15.55
2023-09-27T00:40:27.922Z,15.54
2023-09-27T00:45:31.187Z,15.54
2023-09-27T00:50:34.046Z,15.54
2023-09-27T00:55:37.216Z,15.57
2023-09-27T01:00:40.462Z,15.62
2023-09-27T01:05:43.697Z,15.61
2023-09-27T01:10:47.455Z,15.56
2023-09-27T01:15:50.530Z,15.53
2023-09-27T01:20:53.358Z,15.54
2023-09-27T01:26:01.139Z,15.54
2023-09-27T01:31:04.148Z,15.50
2023-09-27T01:36:07.930Z,15.44
2023-09-27T01:41:10.706Z,15.42
2023-09-27T01:46:13.515Z,15.43
2023-09-27T01:51:16.432Z,15.44
2023-09-27T01:56:19.239Z,15.46
2023-09-27T02:01:22.106Z,15.48
2023-09-27T02:06:25.042Z,15.52
2023-09-27T02:11:27.976Z,15.54
2023-09-27T02:16:32.924Z,15.56
2023-09-27T02:21:35.666Z,15.56
2023-09-27T02:26:38.588Z,15.57
2023-09-27T02:31:41.379Z,15.56
2023-09-27T02:36:44.194Z,15.53
2023-09-27T02:41:46.897Z,15.51
2023-09-27T02:46:50.054Z,15.52
2023-09-27T02:51:55.352Z,15.55
2023-09-27T02:56:58.208Z,15.60
2023-09-27T03:02:00.989Z,15.63
2023-09-27T03:07:04.294Z,15.66
2023-09-27T03:12:08.054Z,15.67
2023-09-27T03:17:11.402Z,15.69
2023-09-27T03:22:14.302Z,15.69
2023-09-27T03:27:18.154Z,15.70
2023-09-27T03:32:21.310Z,15.69
2023-09-27T03:37:24.687Z,15.65
2023-09-27T03:42:28.101Z,15.60
2023-09-27T03:47:31.080Z,15.56
2023-09-27T03:52:34.104Z,15.56
2023-09-27T03:57:36.902Z,15.57
2023-09-27T04:02:39.767Z,15.56
2023-09-27T04:07:42.942Z,15.53
2023-09-27T04:12:45.758Z,15.50
2023-09-27T04:17:48.519Z,15.45
2023-09-27T04:22:51.416Z,15.42
2023-09-27T04:27:54.835Z,15.42
2023-09-27T04:32:57.615Z,15.43
2023-09-27T04:38:00.608Z,15.45
2023-09-27T04:43:03.670Z,15.43
2023-09-27T04:48:07.310Z,15.44
2023-09-27T04:53:11.050Z,15.50
2023-09-27T04:58:13.808Z,15.53
2023-09-27T05:03:16.632Z,15.53
2023-09-27T05:08:19.646Z,15.54
2023-09-27T05:13:22.954Z,15.57
2023-09-27T05:18:25.902Z,15.59
2023-09-27T05:23:28.925Z,15.62
2023-09-27T05:28:33.621Z,15.69
2023-09-27T05:33:36.492Z,15.80
2023-09-27T05:38:40.014Z,15.87
2023-09-27T05:43:42.989Z,15.93
2023-09-27T05:48:45.957Z,16.00
2023-09-27T05:53:53.688Z,16.12
2023-09-27T05:59:00.858Z,16.20
2023-09-27T06:04:04.996Z,16.27
2023-09-27T06:09:11.364Z,16.36
2023-09-27T06:14:15.370Z,16.49
2023-09-27T06:19:18.122Z,16.61
2023-09-27T06:24:20.901Z,16.78
2023-09-27T06:29:23.712Z,16.97
2023-09-27T06:34:27.509Z,17.19
2023-09-27T06:39:30.394Z,17.46
2023-09-27T06:44:35.353Z,17.69
2023-09-27T06:49:38.386Z,17.91
2023-09-27T06:54:42.063Z,18.14
2023-09-27T06:59:45.258Z,18.39
2023-09-27T07:04:48.977Z,18.63
2023-09-27T07:09:52.141Z,18.87
2023-09-27T07:14:54.866Z,19.10
2023-09-27T07:19:57.976Z,19.34
2023-09-27T07:25:02.930Z,19.56
2023-09-27T07:30:06.689Z,19.79
2023-09-27T07:35:11.658Z,20.02
2023-09-27T07:40:15.889Z,20.24
2023-09-27T07:45:23.584Z,20.52
2023-09-27T07:50:34.932Z,20.78
2023-09-27T07:55:44.639Z,21.01
2023-09-27T08:00:47.750Z,21.25
2023-09-27T08:05:50.807Z,21.54
2023-09-27T08:10:54.211Z,21.78
2023-09-27T08:15:57.183Z,22.01
2023-09-27T08:21:04.949Z,22.18
2023-09-27T08:26:13.773Z,22.33
2023-09-27T08:31:19.236Z,22.53
2023-09-27T08:36:22.178Z,22.77
2023-09-27T08:41:31.146Z,22.98
2023-09-27T08:46:37.428Z,23.19
2023-09-27T08:51:43.708Z,23.42
2023-09-27T08:56:55.236Z,23.69
2023-09-27T09:01:58.911Z,23.95
2023-09-27T09:07:04.603Z,24.22
2023-09-27T09:12:11.099Z,24.47
2023-09-27T09:17:19.346Z,24.74
2023-09-27T09:22:31.896Z,25.00
2023-09-27T09:27:35.577Z,25.20
2023-09-27T09:32:52.972Z,25.43
2023-09-27T09:37:56.698Z,25.70
2023-09-27T09:43:01.268Z,25.94
2023-09-27T09:48:05.080Z,26.17
2023-09-27T09:53:11.403Z,26.38
2023-09-27T09:58:37.173Z,26.61
2023-09-27T10:03:48.984Z,26.83
2023-09-27T10:08:53.254Z,26.99
2023-09-27T10:13:56.943Z,27.16
2023-09-27T10:19:02.938Z,27.41
2023-09-27T10:24:09.196Z,27.59
2023-09-27T10:29:17.010Z,27.67
2023-09-27T10:34:29.323Z,27.78
2023-09-27T10:39:34.292Z,27.94
2023-09-27T10:44:38.654Z,28.05
2023-09-27T10:49:43.234Z,28.29
2023-09-27T10:54:48.915Z,28.70
2023-09-27T10:59:53.843Z,29.22
2023-09-27T11:04:57.333Z,29.74
2023-09-27T11:10:02.751Z,30.38
2023-09-27T11:15:06.976Z,31.14
2023-09-27T11:20:14.165Z,32.28
2023-09-27T11:25:28.052Z,33.27
2023-09-27T11:30:33.688Z,34.08
2023-09-27T11:35:51.677Z,34.92
2023-09-27T11:40:55.397Z,35.70
2023-09-27T11:46:00.863Z,36.39
2023-09-27T11:51:06.478Z,37.37
2023-09-27T11:56:12.003Z,38.06
2023-09-27T12:01:15.928Z,38.52
2023-09-27T12:06:20.629Z,38.99
2023-09-27T12:11:26.846Z,39.70
2023-09-27T12:16:33.497Z,40.17
2023-09-27T12:21:37.337Z,40.27
2023-09-27T12:26:42.558Z,40.56
2023-09-27T12:31:45.550Z,41.31
2023-09-27T12:36:50.547Z,41.86
2023-09-27T12:41:53.903Z,42.08
2023-09-27T12:46:56.907Z,42.51
2023-09-27T12:51:59.878Z,42.65
2023-09-27T12:57:02.632Z,41.81
2023-09-27T13:02:05.440Z,39.57
2023-09-27T13:07:08.747Z,37.37
2023-09-27T13:12:11.621Z,35.47
2023-09-27T13:17:14.366Z,34.08
2023-09-27T13:22:17.360Z,32.78
2023-09-27T13:27:20.339Z,31.86
2023-09-27T14:57:42.040Z,28.98
2023-09-27T15:02:44.837Z,29.29
2023-09-27T15:07:47.737Z,30.53
2023-09-27T15:12:50.808Z,32.22
2023-09-27T15:17:53.702Z,32.46
2023-09-27T15:22:56.574Z,32.39
2023-09-27T15:28:00.849Z,33.16
2023-09-27T15:33:03.900Z,33.74
2023-09-27T15:38:06.996Z,32.86
2023-09-27T15:43:10.821Z,31.66
2023-09-27T15:48:13.693Z,30.52
2023-09-27T15:53:16.779Z,29.53
2023-09-27T15:58:19.727Z,28.76
2023-09-27T16:03:22.928Z,28.14
2023-09-27T16:08:28.410Z,27.61
2023-09-27T16:13:31.553Z,27.15
2023-09-27T16:25:12.926Z,26.39
2023-09-27T16:30:34.601Z,26.09
2023-09-27T16:35:38.620Z,25.80
2023-09-27T16:40:41.794Z,25.52
2023-09-27T16:45:45.050Z,25.28
2023-09-27T16:50:48.137Z,25.10
2023-09-27T16:55:51.304Z,24.91
2023-09-27T17:00:56.737Z,24.69
2023-09-27T17:05:59.829Z,24.44
2023-09-27T17:11:02.952Z,24.24
2023-09-27T17:16:08.634Z,24.05
2023-09-27T17:21:11.701Z,23.86
2023-09-27T17:26:14.808Z,23.66
2023-09-27T17:31:17.987Z,23.50
2023-09-27T17:36:21.028Z,23.32
2023-09-27T17:41:24.033Z,23.09
2023-09-27T17:46:28.927Z,22.86
2023-09-27T17:51:32.988Z,22.64
2023-09-27T17:56:36.159Z,22.42
2023-09-27T18:01:40.206Z,22.20
2023-09-27T18:06:43.427Z,22.09
2023-09-27T18:11:46.352Z,21.98
2023-09-27T18:16:49.287Z,21.86
2023-09-27T18:21:52.148Z,21.73
2023-09-27T18:26:55.744Z,21.60
2023-09-27T18:32:01.035Z,21.50
2023-09-27T18:37:04.404Z,21.38
2023-09-27T18:42:07.274Z,21.28
2023-09-27T18:47:10.469Z,21.23
2023-09-27T18:52:14.378Z,21.18
2023-09-27T18:57:17.107Z,21.12
2023-09-27T19:02:19.852Z,21.04
2023-09-27T19:07:23.675Z,20.94
2023-09-27T19:12:26.371Z,20.83
2023-09-27T19:17:29.093Z,20.71
2023-09-27T19:22:33.414Z,20.54
2023-09-27T19:27:36.181Z,20.39
2023-09-27T19:32:39.318Z,20.29
2023-09-27T19:37:42.755Z,20.21
2023-09-27T19:42:47.943Z,20.17
2023-09-27T19:47:51.373Z,20.09
2023-09-27T19:52:54.397Z,19.92
2023-09-27T19:57:57.478Z,19.74
2023-09-27T20:03:00.311Z,19.59
2023-09-27T20:08:03.431Z,19.55
2023-09-27T20:13:06.312Z,19.53
2023-09-27T20:18:09.137Z,19.49
2023-09-27T20:23:11.904Z,19.41
2023-09-27T20:28:14.790Z,19.35
2023-09-27T20:33:18.345Z,19.29
2023-09-27T20:38:21.050Z,19.24
2023-09-27T20:43:23.851Z,19.24
2023-09-27T20:48:26.763Z,19.25
2023-09-27T20:53:29.517Z,19.22
2023-09-27T20:58:32.930Z,19.14
2023-09-27T21:03:36.683Z,19.01
2023-09-27T21:08:39.573Z,18.88
2023-09-27T21:13:42.309Z,18.77
2023-09-27T21:18:45.166Z,18.66
2023-09-27T21:23:47.968Z,18.58
2023-09-27T21:28:50.966Z,18.50
2023-09-27T21:33:54.050Z,18.41
2023-09-27T21:38:57.041Z,18.34
2023-09-27T21:44:00.092Z,18.31
2023-09-27T21:49:02.907Z,18.28
2023-09-27T21:54:05.776Z,18.27
2023-09-27T21:59:09.511Z,18.22
2023-09-27T22:04:12.378Z,18.19
2023-09-27T22:09:15.225Z,18.13
2023-09-27T22:14:21.039Z,18.10
2023-09-27T22:19:29.037Z,18.06
2023-09-27T22:24:32.284Z,18.01
2023-09-27T22:29:35.081Z,18.00
2023-09-27T22:34:38.875Z,17.98
2023-09-27T22:39:41.851Z,17.98
2023-09-27T22:44:45.025Z,17.97
2023-09-27T22:49:47.801Z,17.99
2023-09-27T22:54:50.677Z,18.03
2023-09-27T22:59:54.927Z,18.04
2023-09-27T23:04:58.047Z,18.00
2023-09-27T23:10:04.606Z,17.97
2023-09-27T23:15:10.221Z,17.95
2023-09-27T23:20:13.107Z,17.96
2023-09-27T23:25:34.813Z,17.97
2023-09-27T23:30:51.080Z,17.95
2023-09-27T23:35:54.247Z,17.87
2023-09-27T23:41:00.574Z,17.80
2023-09-27T23:46:07.095Z,17.76
2023-09-27T23:51:09.911Z,17.76
2023-09-27T23:56:12.743Z,17.74
